Bogorodskoye Airport


Codes: UHNB/BQG
Name: Bogorodskoye Airport
City: Bogorodskoye
Country: Russia
Elevation: 0 ft.

Photos at Bogorodskoye Airport


   Photos courtesy of SpottingLog. You can add your own sightings and photos by signing up for a free trial today.



No photos found.

Weather at Bogorodskoye Airport


Time (UTC)DescriptionTempratureWindCloud coverageVisibilityPressureHumidity
21-Feb-2024 03:00Scattered Clouds-22°C11 mph, W44%10000m1016hPa70%
21-Feb-2024 06:00Broken Clouds-20°C11 mph, NW61%10000m1016hPa72%
21-Feb-2024 09:00Overcast Clouds-22°C7 mph, NW98%10000m1017hPa82%
21-Feb-2024 12:00Overcast Clouds-23°C7 mph, W93%10000m1017hPa86%
21-Feb-2024 15:00Overcast Clouds-25°C4 mph, W94%10000m1017hPa86%
21-Feb-2024 18:00Overcast Clouds-23°C4 mph, W97%10000m1017hPa87%
21-Feb-2024 21:00Overcast Clouds-25°C4 mph, W100%10000m1018hPa88%
22-Feb-2024 00:00Broken Clouds-21°C7 mph, W76%10000m1019hPa79%
22-Feb-2024 03:00Broken Clouds-16°C13 mph, NW70%10000m1018hPa73%
22-Feb-2024 06:00Overcast Clouds-15°C13 mph, NW85%10000m1018hPa76%
22-Feb-2024 09:00Scattered Clouds-18°C9 mph, NW39%10000m1020hPa79%
22-Feb-2024 12:00Broken Clouds-17°C9 mph, NW60%10000m1021hPa85%
22-Feb-2024 15:00Broken Clouds-21°C4 mph, NW57%10000m1022hPa89%
22-Feb-2024 18:00Scattered Clouds-23°C4 mph, NW42%10000m1024hPa93%
22-Feb-2024 21:00Broken Clouds-23°C2 mph, NW69%10000m1024hPa91%
23-Feb-2024 00:00Broken Clouds-18°C7 mph, NW68%10000m1025hPa78%
23-Feb-2024 03:00Scattered Clouds-13°C11 mph, NW44%10000m1025hPa68%
23-Feb-2024 06:00Broken Clouds-13°C9 mph, NW67%10000m1025hPa74%
23-Feb-2024 09:00Broken Clouds-21°C0 mph, W57%10000m1027hPa96%
23-Feb-2024 12:00Scattered Clouds-23°C0 mph, S50%10000m1028hPa98%
23-Feb-2024 15:00Broken Clouds-24°C2 mph, S84%10000m1028hPa99%
23-Feb-2024 18:00Overcast Clouds-26°C2 mph, S86%9508m1029hPa100%
23-Feb-2024 21:00Overcast Clouds-27°C0 mph, S93%9688m1030hPa100%
24-Feb-2024 00:00Broken Clouds-19°C2 mph, SW82%10000m1030hPa89%
24-Feb-2024 03:00Scattered Clouds-14°C4 mph, W33%10000m1029hPa75%
24-Feb-2024 06:00Scattered Clouds-13°C4 mph, W48%10000m1028hPa77%
24-Feb-2024 09:00Scattered Clouds-21°C0 mph, NE46%10000m1030hPa99%
24-Feb-2024 12:00Scattered Clouds-23°C2 mph, E42%10000m1031hPa100%
24-Feb-2024 15:00Broken Clouds-23°C2 mph, E72%7374m1031hPa100%
24-Feb-2024 18:00Broken Clouds-23°C0 mph, E83%4655m1031hPa100%
24-Feb-2024 21:00Overcast Clouds-24°C0 mph, SE98%3314m1031hPa100%
25-Feb-2024 00:00Overcast Clouds-17°C2 mph, SW98%6416m1031hPa96%
25-Feb-2024 03:00Overcast Clouds-12°C2 mph, SW98%10000m1029hPa84%
25-Feb-2024 06:00Overcast Clouds-12°C2 mph, SW99%10000m1029hPa82%
25-Feb-2024 09:00Overcast Clouds-20°C0 mph, SE86%8289m1030hPa100%
25-Feb-2024 12:00Broken Clouds-23°C2 mph, E83%6947m1031hPa100%
25-Feb-2024 15:00Broken Clouds-23°C2 mph, NE80%10000m1030hPa100%
25-Feb-2024 18:00Broken Clouds-24°C2 mph, E69%10000m1030hPa100%
25-Feb-2024 21:00Broken Clouds-23°C2 mph, E80%7812m1030hPa100%
26-Feb-2024 00:00Broken Clouds-16°C2 mph, SW77%4053m1030hPa94%